Flight Track Log - Related Links

Times and Time Zones

All times are in EDT time to prevent confusion due to time zone crossing. See the SWA1086 flight status page for this flight to view local times or setup timezone preferences in your user account.

Time Position Orientation Groundspeed Altitude Reporting Facility
EDT Latitude Longitude Course Direction KTS MPH feet Rate Location/Type
Tue 11:03:12 AM 35.4061 -97.5919 North 160 184 2,000  Level Fort Worth Center
Tue 11:03:42 AM 35.4333 -97.5867 North 183 211 2,900 2,795 Climbing Fort Worth Center
Tue 11:06:08 AM 35.6067 -97.5497 10° North 288 331 10,200 2,771 Climbing Kansas City Center
Tue 11:07:12 AM 35.6958 -97.5500 360° North 309 356 12,600 2,226 Climbing Kansas City Center
Tue 11:08:12 AM 35.8008 -97.5492 360° North 353 406 14,800 2,390 Climbing Kansas City Center
Tue 11:09:15 AM 35.9422 -97.5278 North 413 475 17,500 2,903 Climbing Kansas City Center
Tue 11:10:16 AM 36.0508 -97.4531 29° Northeast 441 507 20,800 2,952 Climbing Kansas City Center
Tue 11:11:19 AM 36.1608 -97.3731 30° Northeast 444 511 23,600 2,565 Climbing Kansas City Center
Tue 11:12:20 AM 36.2692 -97.2972 29° Northeast 444 511 26,100 2,213 Climbing Kansas City Center
Tue 11:13:21 AM 36.3800 -97.2186 30° Northeast 450 518 28,100 1,776 Climbing Kansas City Center
Tue 11:14:25 AM 36.4922 -97.1394 30° Northeast 458 527 29,800 1,536 Climbing Kansas City Center
Tue 11:15:26 AM 36.6047 -97.0578 30° Northeast 463 533 31,300 1,536 Climbing Kansas City Center
Tue 11:16:30 AM 36.7194 -96.9725 31° Northeast 468 539 33,000 1,680 Climbing Kansas City Center
Tue 11:17:31 AM 36.8558 -96.8769 29° Northeast 481 554 34,800 992 Climbing Kansas City Center
Tue 11:18:31 AM 36.9678 -96.7961 30° Northeast 472 543 35,000 97 Climbing Kansas City Center
Tue 11:19:35 AM 37.0919 -96.7042 31° Northeast 475 547 35,000  Level Kansas City Center
Tue 11:20:36 AM 37.1981 -96.6272 30° Northeast 479 551 35,000  Level Kansas City Center
Tue 11:21:40 AM 37.3144 -96.5419 30° Northeast 481 554 35,000 -339 Level Kansas City Center
Tue 11:22:40 AM 37.4533 -96.4383 31° Northeast 485 558 34,300 -774 Descending Kansas City Center
Tue 11:23:44 AM 37.5586 -96.3608 30° Northeast 483 556 33,400 -968 Descending Kansas City Center
Tue 11:24:44 AM 37.6853 -96.2683 30° Northeast 484 557 32,300 -968 Descending Kansas City Center
Tue 11:25:48 AM 37.7994 -96.1836 30° Northeast 479 551 31,400 -960 Descending Kansas City Center
Tue 11:26:49 AM 37.9317 -96.0850 30° Northeast 474 545 30,300 -1,033 Descending Kansas City Center
Tue 11:27:50 AM 38.0483 -95.9978 30° Northeast 480 552 29,300 -1,742 Descending Kansas City Center
Tue 11:28:53 AM 38.1569 -95.9158 31° Northeast 476 548 26,700 -2,710 Descending Kansas City Center
Tue 11:29:54 AM 38.2811 -95.8222 31° Northeast 465 535 23,700 -2,661 Descending Kansas City Center
Tue 11:30:57 AM 38.3836 -95.7450 31° Northeast 451 519 21,200 -2,661 Descending Kansas City Center
Tue 11:31:58 AM 38.4986 -95.6561 31° Northeast 435 501 18,200 -2,565 Descending Kansas City Center
Tue 11:33:01 AM 38.5953 -95.5839 30° Northeast 422 486 15,900 -2,079 Descending Kansas City Center
Tue 11:34:05 AM 38.6872 -95.5119 31° Northeast 407 468 13,800 -1,887 Descending Kansas City Center
Tue 11:35:05 AM 38.7894 -95.4328 31° Northeast 386 444 12,000 -1,488 Descending Kansas City Center
Tue 11:36:06 AM 38.8536 -95.3447 47° Northeast 353 406 10,800 -1,296 Descending Kansas City Center
Tue 11:37:10 AM 38.9158 -95.2442 51° Northeast 323 372 9,300 -1,440 Descending Kansas City Center
Tue 11:38:11 AM 38.9669 -95.1619 51° Northeast 312 359 7,800 -1,452 Descending Kansas City Center
Tue 11:39:14 AM 39.0242 -95.0672 52° Northeast 302 348 6,300 -968 Descending Kansas City Center
Tue 11:40:15 AM 39.0672 -94.9958 52° Northeast 266 306 5,800 -871 Descending Kansas City Center
Tue 11:41:18 AM 39.1114 -94.9233 52° Northeast 233 268 4,500 -1,065 Descending Kansas City Center
Tue 11:42:19 AM 39.1478 -94.8636 52° Northeast 224 258 3,600 -726 Descending Kansas City Center
Tue 11:43:22 AM 39.1844 -94.8031 52° Northeast 191 220 3,000 -581 Descending Kansas City Center
Tue 11:44:23 AM 39.2114 -94.7589 52° Northeast 169 194 2,400 -532 Descending Kansas City Center
Tue 11:45:26 AM 39.2542 -94.7425 17° North 146 168 1,900 -576 Descending Kansas City Center
Tue 11:46:28 AM 39.2872 -94.7308 15° North 130 150 1,200 -677 Descending Kansas City Center
Tue 11:48:00 AM 39.2976 -94.7139 67° East  Level Estimated

Login

Don't have an account? Register now (free) for customized features, flight alerts, and more!